Station: Red Rocks Point  

  Atmospheric Gas Attenuation - ITU Rec 676-11   ----------------- dB/100km -----------------
Date Time Temp RH % AH g/m3 Dew Point Wind Direction Speed kph Gust kph Barometer mB Rainfall Since 9am 24GHz 47GHz 76GHz 122GHz 134GHz 241GHz
08/05 09:20 16.9 63 9.06 9.8 19 20 1036 0 20.4 26.6 41.1 107.6 102.3 352.4
08/05 09:10 17.1 65 9.46 10.5 26 30 1035.9 0 21.2 27.2 42.6 111.6 107.3 369.9
08/05 09:00 17.1 65 9.46 10.5 22 26 1035.8 0 21.2 27.2 42.6 111.5 107.3 369.8
08/05 08:50 17.1 62 9.02 9.8 20 20 1035.8 0 20.3 26.4 40.8 106.9 101.5 349.6
08/05 08:40 17.1 65 9.46 10.5 20 22 1035.9 0 21.2 27.2 42.6 111.6 107.3 369.9
08/05 08:30 17.1 62 9.02 9.8 20 26 1035.8 0 20.3 26.4 40.8 106.9 101.5 349.6
08/05 08:20 17 60 8.68 9.2 20 22 1035.7 0 19.6 25.9 39.5 103.4 97.2 334.6
08/05 08:10 16.9 59 8.49 8.8 20 22 1035.7 0 19.2 25.7 38.8 101.6 94.9 326.5
08/05 08:00 17 61 8.83 9.4 22 30 1035.7 0 19.9 26.2 40.1 105.0 99.2 341.4
08/05 07:50 16.8 58 8.29 8.5 22 24 1035.6 0 18.8 25.4 38.1 99.6 92.5 317.9
08/05 07:40 16.8 60 8.58 9 22 24 1035.6 0 19.4 25.8 39.2 102.6 96.2 330.9
08/05 07:30 16.8 59 8.43 8.8 22 30 1035.4 0 19.1 25.6 38.6 101.0 94.3 324.1
08/05 07:20 16.8 60 8.58 9 20 20 1035.3 0 19.4 25.8 39.2 102.6 96.2 330.9
08/05 07:10 16.8 60 8.58 9 28 30 1035.2 0 19.4 25.8 39.2 102.6 96.2 330.8
08/05 07:00 16.8 59 8.43 8.8 22 28 1035.1 0 19.1 25.6 38.6 101.0 94.2 324.1
08/05 06:50 16.8 61 8.72 9.2 26 28 1034.9 0 19.7 26.0 39.7 104.0 97.9 337.1
08/05 06:40 16.7 59 8.38 8.7 26 28 1034.8 0 19.0 25.5 38.5 100.6 93.7 322.2
08/05 06:30 16.8 63 9.01 9.7 26 32 1034.7 0 20.3 26.5 40.9 107.1 101.7 350.2
08/05 06:20 16.7 62 8.81 9.4 24 28 1034.7 0 19.9 26.2 40.1 105.1 99.2 341.5
08/05 06:10 16.6 62 8.76 9.3 28 32 1034.6 0 19.8 26.1 40.0 104.7 98.7 339.6
08/05 06:00 16.6 63 8.9 9.5 30 33 1034.6 0 20.1 26.4 40.5 106.1 100.5 346.0
08/05 05:50 16.6 61 8.62 9.1 30 32 1034.5 0 19.5 25.9 39.4 103.2 96.9 333.3
08/05 05:40 16.6 65 9.18 10 26 30 1034.4 0 20.7 26.8 41.6 109.1 104.2 358.8
08/05 05:30 16.6 64 9.04 9.8 22 28 1034.3 0 20.4 26.6 41.1 107.6 102.3 352.3
08/05 05:20 16.6 64 9.04 9.8 24 28 1034.2 0 20.4 26.6 41.1 107.6 102.3 352.3
08/05 05:10 16.6 63 8.9 9.5 24 28 1034.2 0 20.1 26.3 40.5 106.1 100.5 345.9
08/05 05:00 16.7 64 9.09 9.9 28 35 1034.1 0 20.5 26.6 41.2 108.0 102.8 354.1
08/05 04:50 16.7 62 8.81 9.4 24 28 1034.1 0 19.9 26.2 40.1 105.0 99.2 341.4
08/05 04:40 16.7 63 8.95 9.6 24 26 1034.1 0 20.2 26.4 40.7 106.5 101.0 347.7
08/05 04:30 16.7 64 9.09 9.9 26 33 1034 0 20.5 26.6 41.2 108.0 102.8 354.1
08/05 04:20 16.6 62 8.76 9.3 20 24 1034.1 0 19.8 26.1 40.0 104.6 98.7 339.5
08/05 04:10 16.6 62 8.76 9.3 22 24 1034.1 0 19.8 26.1 40.0 104.6 98.7 339.5
08/05 04:00 16.6 62 8.76 9.3 19 24 1034 0 19.8 26.1 40.0 104.6 98.6 339.5
08/05 03:50 16.5 59 8.28 8.5 20 20 1034 0 18.8 25.4 38.1 99.7 92.6 318.3
08/05 03:40 16.6 57 8.05 8.1 26 26 1033.9 0 18.3 25.0 37.2 97.2 89.5 307.6
08/05 03:30 16.7 59 8.38 8.7 26 33 1033.9 0 19.0 25.5 38.4 100.5 93.6 321.9
08/05 03:20 16.6 58 8.19 8.3 30 32 1034 0 18.6 25.2 37.7 98.7 91.3 313.9
08/05 03:10 16.6 61 8.62 9.1 28 32 1034 0 19.5 25.9 39.4 103.1 96.8 333.1
08/05 03:00 16.6 62 8.76 9.3 26 32 1034 0 19.8 26.1 40.0 104.6 98.6 339.5
08/05 02:50 16.6 60 8.48 8.8 24 28 1034 0 19.2 25.7 38.9 101.7 95.0 326.8
08/05 02:40 16.5 59 8.28 8.5 26 30 1034 0 18.8 25.4 38.1 99.7 92.6 318.3
08/05 02:30 16.7 62 8.81 9.4 28 32 1034 0 19.9 26.2 40.1 105.0 99.2 341.3
08/05 02:20 16.6 61 8.62 9.1 33 35 1034 0 19.5 25.9 39.4 103.1 96.8 333.1
08/05 02:10 16.7 64 9.09 9.9 24 30 1034.1 0 20.5 26.6 41.2 108.0 102.8 354.1
08/05 02:00 16.6 63 8.9 9.5 26 32 1034.1 0 20.1 26.3 40.5 106.1 100.5 345.9
08/05 01:50 16.6 65 9.18 10 26 30 1034 0 20.7 26.8 41.6 109.1 104.1 358.7
08/05 01:40 16.5 60 8.42 8.7 22 24 1034 0 19.1 25.6 38.7 101.2 94.4 324.5
08/05 01:30 16.5 60 8.42 8.7 26 33 1034 0 19.1 25.6 38.7 101.2 94.4 324.5
08/05 01:20 16.5 61 8.57 9 24 28 1034 0 19.4 25.8 39.3 102.7 96.3 331.3
08/05 01:10 16.5 60 8.42 8.7 32 37 1034 0 19.1 25.6 38.7 101.2 94.4 324.5
08/05 01:00 16.6 61 8.62 9.1 32 39 1034 0 19.5 25.9 39.4 103.1 96.8 333.1
08/05 00:50 16.8 66 9.44 10.4 28 33 1034 0 21.2 27.1 42.6 111.6 107.3 369.8
08/05 00:40 16.6 61 8.62 9.1 32 33 1034 0 19.5 25.9 39.4 103.1 96.8 333.1
08/05 00:30 16.7 61 8.67 9.1 28 39 1034.1 0 19.6 25.9 39.6 103.5 97.4 335.0
08/05 00:20 16.8 63 9.01 9.7 28 32 1034.1 0 20.3 26.5 40.8 107.0 101.6 350.0
08/05 00:10 16.8 65 9.29 10.2 30 32 1034.1 0 20.9 26.9 42.0 110.0 105.3 362.9
08/05 00:00 16.7 64 9.09 9.9 20 28 1034.2 0 20.5 26.6 41.2 108.0 102.8 354.2
07/05 23:50 16.7 60 8.53 8.9 20 22 1034.2 0 19.3 25.7 39.0 102.1 95.6 328.7
07/05 23:40 16.7 60 8.53 8.9 22 24 1034.3 0 19.3 25.7 39.0 102.1 95.6 328.8
07/05 23:30 16.7 59 8.38 8.7 30 37 1034.4 0 19.0 25.5 38.4 100.6 93.7 322.0
07/05 23:20 16.8 57 8.15 8.2 35 39 1034.3 0 18.5 25.1 37.5 98.0 90.6 311.4
07/05 23:10 16.8 60 8.58 9 33 37 1034.3 0 19.4 25.8 39.2 102.5 96.1 330.6
07/05 23:00 16.8 63 9.01 9.7 28 35 1034.5 0 20.3 26.5 40.9 107.0 101.7 350.1
07/05 22:50 16.9 63 9.06 9.8 24 28 1034.5 0 20.4 26.5 41.0 107.4 102.2 352.0
07/05 22:40 16.9 60 8.63 9.1 26 28 1034.5 0 19.5 25.8 39.3 102.9 96.6 332.5
07/05 22:30 16.8 59 8.43 8.8 30 39 1034.5 0 19.1 25.6 38.6 101.0 94.2 323.9
07/05 22:20 16.8 61 8.72 9.2 28 32 1034.5 0 19.7 26.0 39.7 104.0 97.9 337.0
07/05 22:10 16.7 60 8.53 8.9 28 32 1034.6 0 19.3 25.7 39.0 102.1 95.6 328.8
07/05 22:00 16.8 63 9.01 9.7 30 35 1034.7 0 20.3 26.5 40.9 107.1 101.7 350.2
07/05 21:50 17 63 9.12 9.9 24 32 1034.7 0 20.5 26.6 41.2 107.9 102.9 354.3
07/05 21:40 16.9 60 8.63 9.1 30 33 1034.7 0 19.5 25.8 39.3 102.9 96.6 332.5
07/05 21:30 17.1 65 9.46 10.5 32 43 1034.6 0 21.2 27.1 42.5 111.4 107.2 369.5
07/05 21:20 17.2 62 9.08 9.9 28 30 1034.6 0 20.4 26.5 40.9 107.2 102.1 351.6
07/05 21:10 17.2 60 8.79 9.4 28 32 1034.5 0 19.8 26.0 39.8 104.2 98.3 338.4
07/05 21:00 17.3 66 9.72 10.9 28 35 1034.4 0 21.8 27.5 43.4 113.9 110.3 380.5
07/05 20:50 17.1 66 9.61 10.7 28 32 1034.4 0 21.5 27.3 43.1 113.0 109.2 376.4
07/05 20:40 17.1 60 8.73 9.3 26 28 1034.4 0 19.7 25.9 39.6 103.7 97.7 336.1
07/05 20:30 17.1 60 8.73 9.3 26 32 1034.3 0 19.7 25.9 39.6 103.7 97.7 336.1
07/05 20:20 17.1 63 9.17 10 28 30 1034.4 0 20.6 26.6 41.3 108.3 103.4 356.1
07/05 20:10 17 60 8.68 9.2 26 30 1034.3 0 19.6 25.9 39.5 103.3 97.1 334.3
07/05 20:00 17.2 62 9.08 9.9 26 32 1034.4 0 20.4 26.5 40.9 107.2 102.1 351.5
07/05 19:50 17.1 64 9.32 10.2 24 26 1034.4 0 20.9 26.9 41.9 109.9 105.3 363.0
07/05 19:40 16.9 57 8.2 8.3 22 24 1034.5 0 18.6 25.2 37.7 98.5 91.1 313.3
07/05 19:30 17 60 8.68 9.2 30 37 1034.5 0 19.6 25.9 39.5 103.3 97.2 334.3
07/05 19:20 17.1 60 8.73 9.3 35 39 1034.4 0 19.7 25.9 39.6 103.7 97.7 336.1
07/05 19:10 17 61 8.83 9.4 22 28 1034.4 0 19.9 26.1 40.0 104.9 99.1 341.1
07/05 19:00 17 56 8.1 8.2 26 33 1034.4 0 18.4 25.0 37.2 97.3 89.8 308.4
07/05 18:50 17.1 59 8.59 9 28 32 1034.3 0 19.4 25.7 39.1 102.2 95.9 329.8
07/05 18:40 17.1 59 8.59 9 30 32 1034.2 0 19.4 25.7 39.1 102.2 95.9 329.8
07/05 18:30 17.1 58 8.44 8.8 28 33 1034.1 0 19.1 25.5 38.5 100.6 93.9 323.0
07/05 18:20 17.2 60 8.79 9.4 30 32 1034 0 19.8 26.0 39.8 104.1 98.3 338.3
07/05 18:10 17.2 59 8.64 9.1 32 33 1034 0 19.5 25.8 39.2 102.6 96.4 331.5
07/05 18:00 17.3 65 9.58 10.7 30 35 1034 0 21.5 27.2 42.9 112.4 108.5 373.9
07/05 17:50 17.1 64 9.32 10.2 28 30 1034 0 20.9 26.9 41.9 109.9 105.3 362.9
07/05 17:40 16.9 66 9.49 10.5 20 22 1033.9 0 21.3 27.2 42.7 111.9 107.8 371.6
07/05 17:30 16.9 69 9.92 11.2 28 33 1033.9 0 22.2 27.9 44.4 116.6 113.5 391.7
07/05 17:20 16.9 68 9.78 11 28 32 1033.8 0 21.9 27.7 43.9 115.1 111.7 385.1
07/05 17:10 17.1 70 10.19 11.6 26 30 1033.8 0 22.8 28.3 45.4 119.2 116.9 403.4
07/05 16:56 17 69 9.98 11.3 26 28 1033.7 0 22.3 28.0 44.6 117.1 114.2 393.9
07/05 16:50 16.9 70 10.07 11.4 20 24 1033.8 0 22.5 28.1 45.1 118.2 115.6 398.7

Last Refresh: 08-May-2026 11:04:00

Bureau of Meteorology